Portada
METAR-TAF:

METAR-TAF

Aeroports :

Norwood Memorial Airport

Norwood, Massachusetts, Estats Units d'Amèrica

latitud: 42-11-27N, longitud: 071-10-26W, altitud: 15 m

Observació

L'informe es va fer fa 40 minuts, a les 07:53 UTC
Vent 11 kt del Oest/Sud-Oest amb ràfegues de 23 kt
Temperatura 21°C
Humitat 64%
Pressió 1013 hPa
Visibilitat: 12.9 km
Cel cobert a una alçada de 8000 ft
pluja

METAR: KOWD 160753Z AUTO 24011G23KT 8SM -RA OVC080 21/14 A2990 RMK AO2 RAB32 SLP124 P0000 T02060144 $

Hora: 04:33 (08:33 UTC)


TAF: manca

Observacions i pronòstics meteorològics de més de 4000 aeroports (METAR i TAF).

Les estacions disponibles són els punts grocs i vermells al mapa.

Posi el ratolí al punt desitjat per veure el nom de l'estació.

Feu clic per veure les observacions i els pronòstics meteorològics.

Per canviar el mapa: feu clic els botons verds amb una creu de color negre per apropar; al botó verd amb un guió per allunyar la imatge; o en les fletxes verdes per a mapes adjacents.


METAR-TAF: